METAR Data
IDs: Format: Raw Decoded Include TAF

Data at: 0209 UTC 24 Sep 2018

KPOU 240153Z AUTO 36004KT 10SM CLR 11/09 A3030 RMK AO2 SLP258 T01060094
KPOU 240053Z 00000KT 10SM CLR 12/11 A3028 RMK AO2 SLP252 T01170106
KPOU 232353Z 00000KT 10SM CLR 13/11 A3026 RMK AO2 SLP243 T01280111 10161 20128 53007
KPOU 232253Z 00000KT 10SM CLR 14/11 A3025 RMK AO2 SLP239 T01390111
KPOU 232153Z 00000KT 10SM CLR 16/10 A3025 RMK AO2 SLP239 T01560100
KPOU 232053Z 00000KT 10SM CLR 16/10 A3024 RMK AO2 SLP235 T01610100 55004
KPOU 231953Z 00000KT 10SM FEW028 16/10 A3023 RMK AO2 SLP235 T01610100
KPOU 231853Z 01003KT 10SM CLR 16/10 A3023 RMK AO2 SLP234 T01610100
KPOU 231753Z 00000KT 10SM CLR 16/09 A3025 RMK AO2 SLP240 T01560094 10156 20106 58010
KPOU 231653Z 00000KT 10SM CLR 15/09 A3026 RMK AO2 SLP245 T01500094
KPOU 231553Z 00000KT 10SM FEW043 14/09 A3028 RMK AO2 SLP250 T01390094
KPOU 231453Z 00000KT 10SM CLR 13/09 A3028 RMK AO2 SLP250 T01330089 50008
KPOU 231353Z 34003KT 10SM CLR 12/09 A3028 RMK AO2 SLP251 T01220089
KPOU 231253Z 01004KT 10SM CLR 11/09 A3027 RMK AO2 SLP247 T01110089
KPOU 231153Z 00000KT 10SM CLR 11/09 A3025 RMK AO2 SLP241 T01060089 10111 20100 53001
KPOU 231053Z 00000KT 10SM CLR 10/09 A3024 RMK AO2 SLP235 T01000089
KPOU 230953Z AUTO 00000KT 10SM CLR 11/09 A3024 RMK AO2 SLP239 T01060089
KPOU 230853Z 00000KT 10SM CLR 11/09 A3025 RMK AO2 SLP241 T01110094 53009
KPOU 230753Z 01003KT 10SM CLR 11/09 A3023 RMK AO2 SLP235 T01060094
KPOU 230653Z 00000KT 10SM CLR 11/10 A3023 RMK AO2 SLP233 T01110100
KPOU 230553Z 00000KT 10SM CLR 11/09 A3022 RMK AO2 SLP231 T01060094 10144 20106 53002
KPOU 230453Z 00000KT 10SM CLR 11/10 A3022 RMK AO2 SLP230 T01110100 402280106
KPOU 230353Z 00000KT 10SM CLR 12/10 A3022 RMK AO2 SLP230 T01170100
KPOU 230253Z 00000KT 10SM CLR 12/11 A3022 RMK AO2 SLP229 T01170106 50007
KPOU 230153Z 00000KT 10SM CLR 12/11 A3022 RMK AO2 SLP230 T01220106
KPOU 230053Z 00000KT 10SM CLR 14/11 A3022 RMK AO2 SLP229 T01390111
KPOU 222353Z 00000KT 10SM CLR 14/11 A3020 RMK AO2 SLP222 T01440111 10194 20144 51013
KPOU 222253Z 00000KT 10SM CLR 16/10 A3019 RMK AO2 SLP220 T01560100
KPOU 222153Z 00000KT 10SM CLR 17/10 A3018 RMK AO2 SLP215 T01670100
KPOU 222053Z 01007KT 10SM CLR 18/08 A3016 RMK AO2 SLP208 T01780083 53003
KPOU 221953Z 01006KT 10SM CLR 19/08 A3016 RMK AO2 SLP207 T01890083
KPOU 221853Z 01009KT 10SM CLR 19/08 A3015 RMK AO2 SLP205 T01890078
KPOU 221753Z 02007KT 10SM CLR 19/09 A3015 RMK AO2 SLP205 T01940094 10194 20172 53005
KPOU 221653Z 34009KT 10SM CLR 18/08 A3014 RMK AO2 SLP203 T01830083
KPOU 221553Z 01007KT 10SM CLR 19/10 A3014 RMK AO2 SLP201 T01940100
KPOU 221453Z 03009KT 10SM CLR 17/09 A3014 RMK AO2 SLP200 T01720089 51028